Time;durP1;ratioP1;P1;durP2;ratioP2;P2;SDS_P1;SDS_P2;PMS_P1;PMS_P2;Temp;Humidity;BMP_temperature;BMP_pressure;BME280_temperature;BME280_humidity;BME280_pressure;Samples;Min_cycle;Max_cycle;Signal;HPM_P1;HPM_P2
2023/07/02 00:01:53;;;;;;;1.30;1.30;;;;;;;24.39;100.00;99297.94;5111352;28;20273;-69
2023/07/02 00:04:20;;;;;;;1.60;1.50;;;;;;;24.37;100.00;99299.78;5112124;28;20198;-69
2023/07/02 00:06:48;;;;;;;1.50;1.40;;;;;;;24.38;100.00;99297.06;5112003;28;20193;-69
2023/07/02 00:09:15;;;;;;;1.42;1.42;;;;;;;24.36;100.00;99303.41;5112182;28;20201;-69
2023/07/02 00:11:45;;;;;;;1.58;1.48;;;;;;;24.30;100.00;99295.75;5111313;28;20197;-69
2023/07/02 00:14:13;;;;;;;1.30;1.30;;;;;;;24.16;100.00;99270.88;5111342;28;20370;-69
2023/07/02 00:16:43;;;;;;;1.40;1.40;;;;;;;24.12;100.00;99274.59;5107710;28;20224;-69
2023/07/02 00:19:11;;;;;;;1.33;1.33;;;;;;;24.25;100.00;99292.53;5111501;28;20194;-69
2023/07/02 00:21:38;;;;;;;1.70;1.60;;;;;;;24.11;100.00;99299.34;5110929;28;20289;-70
2023/07/02 00:24:06;;;;;;;1.58;1.48;;;;;;;24.06;100.00;99284.66;5100586;28;20201;-69
2023/07/02 00:26:32;;;;;;;1.60;1.50;;;;;;;24.07;100.00;99297.81;5111986;28;20266;-69
2023/07/02 00:29:00;;;;;;;1.40;1.40;;;;;;;24.08;100.00;99296.88;5111804;28;20193;-69
2023/07/02 00:31:27;;;;;;;1.50;1.50;;;;;;;23.95;100.00;99290.50;5111717;28;20197;-69
2023/07/02 00:33:54;;;;;;;1.30;1.30;;;;;;;23.81;100.00;99277.13;5111849;28;20216;-69
2023/07/02 00:36:21;;;;;;;1.25;1.25;;;;;;;23.74;100.00;99281.03;5111675;28;20205;-69
2023/07/02 00:38:49;;;;;;;1.40;1.40;;;;;;;23.79;100.00;99280.81;5111752;28;20262;-69
2023/07/02 00:41:17;;;;;;;1.40;1.40;;;;;;;23.86;100.00;99275.13;5111436;28;20233;-69
2023/07/02 00:43:44;;;;;;;1.35;1.35;;;;;;;23.87;100.00;99281.25;5111787;28;20209;-69
2023/07/02 00:46:17;;;;;;;1.35;1.35;;;;;;;23.82;100.00;99270.91;5111172;28;20232;-69
2023/07/02 00:48:45;;;;;;;1.40;1.40;;;;;;;23.79;100.00;99271.06;5042433;28;20689;-69
2023/07/02 00:51:14;;;;;;;1.60;1.50;;;;;;;23.85;100.00;99275.19;5111046;28;20292;-69
2023/07/02 00:53:41;;;;;;;1.40;1.40;;;;;;;23.75;100.00;99280.09;5111329;28;20208;-69
2023/07/02 00:56:08;;;;;;;1.40;1.40;;;;;;;23.72;100.00;99274.13;5111264;28;20208;-69
2023/07/02 00:58:38;;;;;;;1.30;1.30;;;;;;;23.79;100.00;99275.50;5111224;28;20200;-69
2023/07/02 01:01:05;;;;;;;1.33;1.33;;;;;;;23.73;100.00;99278.44;5110655;28;20239;-69
2023/07/02 01:03:37;;;;;;;1.33;1.33;;;;;;;23.89;100.00;99272.31;5110646;28;20200;-69
2023/07/02 01:06:04;;;;;;;1.30;1.30;;;;;;;23.85;100.00;99268.09;5110753;28;20201;-69
2023/07/02 01:08:30;;;;;;;1.55;1.48;;;;;;;23.80;100.00;99269.25;5110561;28;20189;-69
2023/07/02 01:10:59;;;;;;;1.40;1.40;;;;;;;23.80;100.00;99256.03;5111274;28;20197;-69
2023/07/02 01:13:27;;;;;;;1.38;1.38;;;;;;;23.96;100.00;99275.47;5110273;28;20205;-69
2023/07/02 01:15:54;;;;;;;1.33;1.33;;;;;;;23.87;100.00;99271.50;5110107;28;20233;-69
2023/07/02 01:18:21;;;;;;;1.70;1.60;;;;;;;23.82;100.00;99265.63;5110483;28;20190;-69
2023/07/02 01:20:50;;;;;;;1.50;1.40;;;;;;;23.88;100.00;99270.59;5110608;28;20228;-69
2023/07/02 01:23:17;;;;;;;1.23;1.23;;;;;;;23.79;100.00;99262.28;5110892;28;20304;-69
2023/07/02 01:25:45;;;;;;;1.60;1.50;;;;;;;23.46;100.00;99233.09;5110379;28;20204;-69
2023/07/02 01:28:13;;;;;;;1.45;1.42;;;;;;;23.43;100.00;99249.13;5091673;28;20185;-69
2023/07/02 01:30:41;;;;;;;1.70;1.60;;;;;;;23.55;100.00;99261.72;5110349;28;20962;-69
2023/07/02 01:33:08;;;;;;;1.35;1.35;;;;;;;23.53;100.00;99268.91;5110251;28;20648;-69
2023/07/02 01:35:34;;;;;;;1.75;1.65;;;;;;;23.56;100.00;99268.72;5110041;28;20193;-69
2023/07/02 01:38:02;;;;;;;1.33;1.33;;;;;;;23.45;100.00;99255.19;5110124;28;20576;-69
2023/07/02 01:40:29;;;;;;;1.52;1.42;;;;;;;23.50;100.00;99269.06;5110012;28;20214;-69
2023/07/02 01:42:56;;;;;;;1.40;1.40;;;;;;;23.51;100.00;99268.09;5074863;28;20201;-70
2023/07/02 01:45:23;;;;;;;1.02;1.02;;;;;;;23.35;100.00;99268.00;5110593;28;20201;-69
2023/07/02 01:47:49;;;;;;;1.40;1.40;;;;;;;23.26;100.00;99270.25;5109836;28;20569;-69
2023/07/02 01:50:16;;;;;;;1.55;1.45;;;;;;;23.26;100.00;99262.31;5110240;28;20660;-69
2023/07/02 01:52:43;;;;;;;1.30;1.30;;;;;;;23.34;100.00;99260.13;5110335;28;20250;-69
2023/07/02 01:55:11;;;;;;;1.35;1.35;;;;;;;23.48;100.00;99270.91;5074014;28;20660;-69
2023/07/02 01:57:38;;;;;;;1.50;1.40;;;;;;;23.43;100.00;99262.34;5110332;28;20209;-69
2023/07/02 02:00:06;;;;;;;1.40;1.40;;;;;;;23.44;100.00;99245.53;5112028;28;20221;-69
2023/07/02 02:02:33;;;;;;;1.40;1.38;;;;;;;23.41;100.00;99253.59;5095198;28;20302;-69
2023/07/02 02:05:00;;;;;;;1.60;1.50;;;;;;;23.41;100.00;99248.28;5114115;28;20202;-69
2023/07/02 02:07:27;;;;;;;1.58;1.50;;;;;;;23.38;100.00;99254.63;5114297;28;20201;-69
2023/07/02 02:09:54;;;;;;;1.40;1.40;;;;;;;23.38;100.00;99254.63;5114307;28;20209;-69
2023/07/02 02:12:22;;;;;;;1.30;1.30;;;;;;;23.40;100.00;99236.03;5114274;28;20258;-69
2023/07/02 02:14:48;;;;;;;1.40;1.40;;;;;;;23.40;100.00;99249.25;5078013;28;20194;-69
2023/07/02 02:17:15;;;;;;;1.25;1.25;;;;;;;23.41;100.00;99240.34;5113901;28;20194;-69
2023/07/02 02:19:42;;;;;;;1.33;1.33;;;;;;;23.36;100.00;99242.41;5077822;28;20204;-69
2023/07/02 02:22:09;;;;;;;1.30;1.30;;;;;;;23.34;100.00;99237.19;5114135;28;20282;-69
2023/07/02 02:24:35;;;;;;;1.52;1.52;;;;;;;23.28;100.00;99234.84;5094935;28;20676;-69
2023/07/02 02:27:02;;;;;;;1.20;1.20;;;;;;;23.26;100.00;99231.41;5114291;28;20225;-69
2023/07/02 02:29:30;;;;;;;1.40;1.40;;;;;;;23.25;100.00;99239.44;5078575;28;20189;-69
2023/07/02 02:31:57;;;;;;;1.25;1.25;;;;;;;23.25;100.00;99252.66;5114298;28;20227;-69
2023/07/02 02:34:24;;;;;;;1.35;1.35;;;;;;;23.34;100.00;99246.91;5114067;28;20201;-69
2023/07/02 02:36:51;;;;;;;1.30;1.30;;;;;;;23.16;100.00;99244.25;5114111;28;20190;-69
2023/07/02 02:39:17;;;;;;;1.20;1.20;;;;;;;23.10;100.00;99248.97;5114016;28;20197;-69
2023/07/02 02:41:44;;;;;;;1.30;1.30;;;;;;;23.05;100.00;99233.34;5113859;28;20361;-69
2023/07/02 02:44:11;;;;;;;1.40;1.40;;;;;;;23.13;100.00;99244.41;5113877;28;20206;-69
2023/07/02 02:46:39;;;;;;;1.58;1.50;;;;;;;23.20;100.00;99244.94;5113772;28;20200;-69
2023/07/02 02:49:06;;;;;;;1.30;1.30;;;;;;;23.14;100.00;99239.97;5113487;28;20736;-69
2023/07/02 02:51:32;;;;;;;1.30;1.30;;;;;;;23.15;100.00;99249.63;5094571;28;20652;-69
2023/07/02 02:53:59;;;;;;;1.40;1.40;;;;;;;23.08;100.00;99241.09;5113827;28;20197;-69
2023/07/02 02:56:26;;;;;;;1.30;1.30;;;;;;;22.75;100.00;99175.84;5113691;28;20258;-69
2023/07/02 02:58:53;;;;;;;1.60;1.60;;;;;;;22.92;100.00;99197.88;5074061;28;20194;-70
2023/07/02 03:01:20;;;;;;;1.63;1.52;;;;;;;23.28;100.00;99240.13;5111570;28;20225;-69
2023/07/02 03:03:48;;;;;;;1.50;1.45;;;;;;;23.14;100.00;99224.97;5113425;28;20197;-69
2023/07/02 03:06:15;;;;;;;1.40;1.40;;;;;;;23.18;100.00;99250.34;5093750;28;20660;-69
2023/07/02 03:08:42;;;;;;;1.42;1.42;;;;;;;23.17;100.00;99240.69;5113307;28;20680;-70
2023/07/02 03:11:09;;;;;;;1.25;1.25;;;;;;;23.18;100.00;99242.41;5112412;28;20205;-70
2023/07/02 03:13:35;;;;;;;1.30;1.30;;;;;;;23.19;100.00;99237.94;5093352;28;20711;-69
2023/07/02 03:16:02;;;;;;;1.45;1.40;;;;;;;23.22;100.00;99232.53;5113093;28;20692;-69
2023/07/02 03:18:29;;;;;;;1.35;1.35;;;;;;;23.20;100.00;99235.22;5076629;28;20194;-69
2023/07/02 03:20:57;;;;;;;1.40;1.40;;;;;;;23.23;100.00;99240.34;5112222;28;20708;-69
2023/07/02 03:23:24;;;;;;;1.30;1.30;;;;;;;23.26;100.00;99238.50;5105196;28;20206;-69
2023/07/02 03:25:51;;;;;;;1.40;1.40;;;;;;;23.22;100.00;99228.06;5112540;28;20194;-69
2023/07/02 03:28:18;;;;;;;1.42;1.42;;;;;;;23.41;100.00;99237.72;5111924;28;20615;-69
2023/07/02 03:30:44;;;;;;;1.40;1.40;;;;;;;23.56;100.00;99247.56;5112711;28;20201;-69
2023/07/02 03:33:11;;;;;;;1.25;1.25;;;;;;;23.84;100.00;99253.13;5076508;28;20236;-69
2023/07/02 03:35:38;;;;;;;1.33;1.33;;;;;;;24.12;100.00;99264.00;5110357;28;20198;-69
2023/07/02 03:38:06;;;;;;;1.23;1.23;;;;;;;24.67;100.00;99271.63;5111500;28;20198;-69
2023/07/02 03:40:33;;;;;;;1.30;1.30;;;;;;;25.29;100.00;99275.22;5112003;28;20329;-69
2023/07/02 03:43:00;;;;;;;1.40;1.40;;;;;;;25.98;100.00;99287.00;5112205;28;20197;-69
2023/07/02 03:45:27;;;;;;;1.40;1.40;;;;;;;26.57;100.00;99275.38;5075866;28;20640;-69
2023/07/02 03:47:53;;;;;;;1.17;1.17;;;;;;;27.54;100.00;99294.78;5112145;28;20216;-69
2023/07/02 03:50:20;;;;;;;1.23;1.23;;;;;;;28.34;100.00;99296.38;5111528;28;20200;-71
2023/07/02 03:52:47;;;;;;;1.20;1.20;;;;;;;28.82;92.86;99297.41;5109720;28;20760;-69
2023/07/02 03:55:15;;;;;;;1.38;1.38;;;;;;;29.32;88.29;99304.41;5111080;28;20708;-69
2023/07/02 03:57:42;;;;;;;1.00;1.00;;;;;;;29.34;83.98;99311.34;5111867;28;20219;-70
2023/07/02 04:00:11;;;;;;;1.27;1.27;;;;;;;29.83;82.31;99324.53;5111760;28;20687;-73
2023/07/02 04:02:38;;;;;;;1.10;1.10;;;;;;;30.34;78.49;99318.84;5075847;28;20220;-69
2023/07/02 04:05:06;;;;;;;1.35;1.35;;;;;;;30.90;73.89;99320.56;5111082;28;20204;-69
2023/07/02 04:07:32;;;;;;;1.20;1.20;;;;;;;31.24;71.31;99325.88;5111652;28;20193;-72
2023/07/02 04:09:59;;;;;;;1.30;1.30;;;;;;;31.14;70.74;99324.94;5075689;28;20192;-72
2023/07/02 04:12:27;;;;;;;1.30;1.30;;;;;;;31.14;70.83;99330.31;5075931;28;20201;-68
2023/07/02 04:14:54;;;;;;;1.20;1.20;;;;;;;31.49;69.81;99328.25;5106891;28;20267;-68
2023/07/02 04:17:21;;;;;;;1.10;1.10;;;;;;;32.05;66.86;99328.00;5111220;28;20257;-69
2023/07/02 04:19:48;;;;;;;1.10;1.10;;;;;;;32.33;64.74;99341.63;5111116;28;20636;-68
2023/07/02 04:22:15;;;;;;;1.08;1.08;;;;;;;32.78;61.89;99342.19;5111468;28;20212;-68
2023/07/02 04:24:42;;;;;;;1.00;1.00;;;;;;;32.85;61.70;99343.34;5109634;28;20205;-69
2023/07/02 04:27:09;;;;;;;1.23;1.23;;;;;;;33.13;60.02;99338.22;5108117;28;20192;-69
2023/07/02 04:29:37;;;;;;;1.08;1.08;;;;;;;32.81;60.34;99338.38;5110808;28;20201;-69
2023/07/02 04:32:04;;;;;;;1.20;1.20;;;;;;;32.74;60.16;99340.75;5110582;28;20601;-68
2023/07/02 04:34:31;;;;;;;1.20;1.20;;;;;;;33.03;59.07;99342.69;5110210;28;20200;-69
2023/07/02 04:36:57;;;;;;;1.10;1.10;;;;;;;33.33;56.92;99353.38;5110361;28;20230;-68
2023/07/02 04:39:24;;;;;;;1.20;1.20;;;;;;;33.89;55.86;99354.44;5110766;28;20193;-69
2023/07/02 04:41:52;;;;;;;1.20;1.20;;;;;;;33.84;55.34;99356.72;5110576;28;20221;-69
2023/07/02 04:44:29;;;;;;;1.10;1.10;;;;;;;33.73;55.78;99343.41;5110080;28;20632;-69
2023/07/02 04:46:58;;;;;;;1.27;1.27;;;;;;;33.73;55.11;99346.09;5108283;28;20192;-68
2023/07/02 04:49:25;;;;;;;1.17;1.17;;;;;;;33.43;56.87;99364.97;5110391;28;20221;-68
2023/07/02 04:51:53;;;;;;;1.30;1.30;;;;;;;33.56;55.94;99341.38;5110716;28;20719;-68
2023/07/02 04:54:20;;;;;;;1.30;1.30;;;;;;;34.24;53.68;99348.50;5110099;28;20200;-68
2023/07/02 04:56:47;;;;;;;1.20;1.20;;;;;;;34.54;52.79;99355.47;5110332;28;20193;-68
2023/07/02 04:59:14;;;;;;;1.30;1.30;;;;;;;34.71;52.45;99354.72;5110043;28;20193;-68
2023/07/02 05:01:40;;;;;;;1.10;1.10;;;;;;;34.44;53.03;99351.97;5110224;28;20224;-68
2023/07/02 05:04:12;;;;;;;1.30;1.30;;;;;;;33.18;56.08;99347.53;5109922;28;20197;-68
2023/07/02 05:06:38;;;;;;;1.27;1.27;;;;;;;32.40;59.59;99339.25;5110703;28;20292;-68
2023/07/02 05:09:05;;;;;;;1.33;1.33;;;;;;;31.50;64.69;99346.00;5110336;28;20591;-68
2023/07/02 05:11:32;;;;;;;1.30;1.30;;;;;;;30.46;74.93;99355.38;5110917;28;20197;-69
2023/07/02 05:13:59;;;;;;;1.50;1.50;;;;;;;29.63;82.16;99359.09;5110274;28;20279;-71
2023/07/02 05:16:26;;;;;;;1.23;1.23;;;;;;;28.75;91.77;99362.88;5110198;28;20221;-69
2023/07/02 05:18:52;;;;;;;1.50;1.50;;;;;;;28.65;94.24;99359.94;5110619;28;20247;-69
2023/07/02 05:21:21;;;;;;;1.20;1.20;;;;;;;28.18;98.76;99357.94;5110267;28;20232;-69
2023/07/02 05:23:48;;;;;;;1.20;1.20;;;;;;;27.36;100.00;99343.94;5108373;28;20266;-68
2023/07/02 05:26:15;;;;;;;2.08;1.98;;;;;;;27.04;100.00;99367.31;5110361;28;20672;-68
2023/07/02 05:28:41;;;;;;;1.27;1.27;;;;;;;27.25;100.00;99357.94;5110534;28;20212;-67
2023/07/02 05:31:08;;;;;;;1.33;1.33;;;;;;;27.16;100.00;99326.56;5110407;28;20205;-68
2023/07/02 05:33:35;;;;;;;1.30;1.30;;;;;;;27.31;100.00;99364.66;5109986;28;20193;-68
2023/07/02 05:36:02;;;;;;;1.77;1.67;;;;;;;27.52;100.00;99355.28;5113082;28;20250;-68
2023/07/02 05:38:30;;;;;;;1.55;1.45;;;;;;;27.13;100.00;99358.72;5095563;28;20223;-67
2023/07/02 05:40:57;;;;;;;1.70;1.60;;;;;;;27.00;100.00;99350.63;5114424;28;20587;-68
2023/07/02 05:43:23;;;;;;;1.50;1.40;;;;;;;27.39;100.00;99355.22;5114324;28;20596;-69
2023/07/02 05:45:52;;;;;;;1.33;1.33;;;;;;;28.49;100.00;99370.00;5114222;28;20610;-68
2023/07/02 05:48:18;;;;;;;1.70;1.60;;;;;;;29.86;92.05;99376.94;5114059;28;20228;-69
2023/07/02 05:50:45;;;;;;;1.50;1.45;;;;;;;30.77;84.05;99381.44;5113326;28;20744;-67
2023/07/02 05:53:12;;;;;;;1.67;1.58;;;;;;;31.79;72.29;99384.69;5113729;28;20219;-71
2023/07/02 05:55:41;;;;;;;1.45;1.40;;;;;;;32.09;71.05;99388.50;5113398;28;20212;-68
2023/07/02 05:58:08;;;;;;;1.20;1.20;;;;;;;32.52;66.44;99383.84;5111530;28;20208;-67
2023/07/02 06:00:35;;;;;;;1.30;1.30;;;;;;;31.66;68.39;99384.03;5073465;28;20195;-68
2023/07/02 06:03:02;;;;;;;1.30;1.30;;;;;;;31.13;66.81;99377.66;5107743;28;20232;-68
2023/07/02 06:05:28;;;;;;;1.35;1.30;;;;;;;31.01;67.98;99377.78;5109054;28;20217;-68
2023/07/02 06:07:55;;;;;;;2.42;2.22;;;;;;;30.52;68.84;99378.13;5113793;28;20193;-68
2023/07/02 06:10:22;;;;;;;1.75;1.65;;;;;;;30.02;73.67;99389.06;5077915;28;20289;-74
2023/07/02 06:12:50;;;;;;;1.63;1.52;;;;;;;29.30;79.75;99391.81;5077640;28;20205;-72
2023/07/02 06:15:17;;;;;;;2.60;1.83;;;;;;;28.37;85.79;99387.69;5112411;28;20225;-67
2023/07/02 06:17:43;;;;;;;1.98;1.70;;;;;;;27.86;88.71;99385.91;5110324;28;20310;-67
2023/07/02 06:20:11;;;;;;;1.55;1.45;;;;;;;27.77;92.94;99387.34;5112996;28;20681;-67
2023/07/02 06:22:39;;;;;;;1.73;1.63;;;;;;;27.84;92.35;99372.66;5101258;27;20613;-69
2023/07/02 06:25:07;;;;;;;1.60;1.50;;;;;;;27.86;92.33;99378.72;5095692;28;20217;-69
2023/07/02 06:27:34;;;;;;;1.63;1.52;;;;;;;27.55;93.60;99374.59;5093146;28;20205;-68
2023/07/02 06:30:02;;;;;;;1.83;1.70;;;;;;;27.62;95.28;99367.03;5111780;28;20197;-67
2023/07/02 06:32:28;;;;;;;1.65;1.55;;;;;;;27.48;98.88;99369.75;5103629;28;20274;-68
2023/07/02 06:34:55;;;;;;;1.67;1.58;;;;;;;27.60;96.13;99379.63;5097544;28;20749;-67
2023/07/02 06:37:22;;;;;;;1.70;1.60;;;;;;;27.39;96.27;99349.03;5110957;28;20201;-67
2023/07/02 06:39:49;;;;;;;1.58;1.48;;;;;;;27.31;97.87;99340.69;5112685;28;20193;-67
2023/07/02 06:42:15;;;;;;;1.83;1.73;;;;;;;27.38;98.11;99365.97;5107859;28;20231;-68
2023/07/02 06:44:42;;;;;;;1.45;1.35;;;;;;;27.45;99.47;99369.97;5112908;28;20304;-67
2023/07/02 06:47:11;;;;;;;1.70;1.60;;;;;;;27.52;100.00;99373.94;5111613;28;20200;-69
2023/07/02 06:49:37;;;;;;;1.80;1.70;;;;;;;27.48;100.00;99375.09;5112899;28;20596;-68
2023/07/02 06:52:05;;;;;;;1.63;1.52;;;;;;;27.49;100.00;99366.16;5071884;28;20326;-68
2023/07/02 06:54:31;;;;;;;1.80;1.70;;;;;;;27.78;98.74;99362.41;5092560;28;20210;-68
2023/07/02 06:56:58;;;;;;;1.50;1.40;;;;;;;27.96;97.81;99376.31;5104009;28;20202;-69
2023/07/02 06:59:25;;;;;;;1.70;1.60;;;;;;;27.72;98.95;99383.28;5092289;28;20209;-68
2023/07/02 07:01:52;;;;;;;1.92;1.83;;;;;;;27.54;100.00;99388.00;5109557;28;20221;-72
2023/07/02 07:04:20;;;;;;;1.73;1.63;;;;;;;27.30;99.23;99342.50;5113261;28;20197;-67
2023/07/02 07:06:47;;;;;;;1.55;1.45;;;;;;;27.19;100.00;99390.25;5113086;28;20207;-68
2023/07/02 07:09:13;;;;;;;1.50;1.40;;;;;;;27.09;100.00;99390.00;5113162;28;20193;-68
2023/07/02 07:11:40;;;;;;;1.77;1.67;;;;;;;27.24;100.00;99388.16;5112923;28;20212;-68
2023/07/02 07:14:08;;;;;;;1.50;1.40;;;;;;;27.24;100.00;99387.31;5077024;28;20201;-68
2023/07/02 07:16:34;;;;;;;1.00;1.00;;;;;;;27.29;100.00;99386.03;5112966;28;20236;-68
2023/07/02 07:19:02;;;;;;;1.48;1.38;;;;;;;27.25;100.00;99395.22;5113031;28;20197;-68
2023/07/02 07:21:30;;;;;;;1.70;1.60;;;;;;;27.64;100.00;99391.78;5112711;28;20663;-68
2023/07/02 07:23:57;;;;;;;1.50;1.40;;;;;;;27.16;100.00;99389.59;5112929;28;20279;-68
2023/07/02 07:26:24;;;;;;;1.70;1.60;;;;;;;27.33;100.00;99387.56;5112598;28;20648;-68
2023/07/02 07:28:50;;;;;;;2.03;1.92;;;;;;;27.35;100.00;99387.47;5112480;28;20193;-68
2023/07/02 07:31:17;;;;;;;1.50;1.40;;;;;;;27.28;99.68;99376.38;5111513;28;20642;-68
2023/07/02 07:33:44;;;;;;;1.30;1.30;;;;;;;27.38;100.00;99389.94;5110636;28;20601;-69
2023/07/02 07:36:11;;;;;;;1.35;1.33;;;;;;;27.39;100.00;99399.63;5111430;28;20256;-69
2023/07/02 07:38:39;;;;;;;1.42;1.40;;;;;;;27.57;100.00;99398.47;5112601;28;20194;-68
2023/07/02 07:41:06;;;;;;;1.50;1.40;;;;;;;27.14;100.00;99395.03;5112309;28;20633;-69
2023/07/02 07:43:34;;;;;;;1.70;1.60;;;;;;;26.23;100.00;99397.16;5112276;28;20679;-69
2023/07/02 07:46:01;;;;;;;2.13;2.03;;;;;;;25.97;100.00;99380.91;5112315;28;20197;-69
2023/07/02 07:48:28;;;;;;;1.52;1.42;;;;;;;25.79;100.00;99392.63;5112481;28;20193;-68
2023/07/02 07:50:55;;;;;;;1.73;1.63;;;;;;;25.84;100.00;99379.94;5112313;28;20205;-69
2023/07/02 07:53:21;;;;;;;1.50;1.40;;;;;;;26.04;100.00;99371.63;5110940;28;20201;-69
2023/07/02 07:55:50;;;;;;;1.60;1.50;;;;;;;26.38;100.00;99369.66;5102765;27;20205;-71
2023/07/02 07:58:16;;;;;;;1.70;1.60;;;;;;;26.55;100.00;99378.31;5098679;28;20201;-70
2023/07/02 08:00:43;;;;;;;1.60;1.50;;;;;;;26.81;100.00;99387.34;5095469;28;20213;-71
2023/07/02 08:03:11;;;;;;;2.00;1.90;;;;;;;27.36;100.00;99381.19;5094111;28;20218;-70
2023/07/02 08:05:37;;;;;;;1.30;1.30;;;;;;;27.76;100.00;99388.28;5090258;28;20206;-70
2023/07/02 08:08:05;;;;;;;1.60;1.50;;;;;;;28.03;100.00;99394.47;5089958;28;20201;-71
2023/07/02 08:10:31;;;;;;;1.67;1.58;;;;;;;28.04;100.00;99401.47;5097271;28;20205;-70
2023/07/02 08:12:59;;;;;;;1.58;1.48;;;;;;;28.12;100.00;99395.66;5109726;28;20581;-70
2023/07/02 08:15:26;;;;;;;1.00;1.00;;;;;;;28.52;100.00;99396.47;5101826;28;20291;-70
2023/07/02 08:17:54;;;;;;;1.35;1.30;;;;;;;28.65;100.00;99407.97;5090431;28;20210;-72
2023/07/02 08:20:21;;;;;;;1.55;1.45;;;;;;;28.57;100.00;99405.84;5094818;28;20201;-67
2023/07/02 08:22:48;;;;;;;1.63;1.52;;;;;;;28.71;95.24;99402.25;5106514;28;20232;-67
2023/07/02 08:25:15;;;;;;;1.30;1.30;;;;;;;28.68;97.82;99405.13;5097132;28;20222;-67
2023/07/02 08:27:41;;;;;;;1.60;1.50;;;;;;;28.36;96.03;99406.50;5106112;28;20213;-68
2023/07/02 08:30:10;;;;;;;1.23;1.23;;;;;;;28.46;95.96;99400.41;5109270;28;20263;-67
2023/07/02 08:32:37;;;;;;;1.65;1.55;;;;;;;28.28;95.09;99411.50;5110715;28;20216;-67
2023/07/02 08:35:04;;;;;;;1.58;1.48;;;;;;;28.41;93.13;99405.19;5069078;28;20201;-69
2023/07/02 08:37:31;;;;;;;2.20;2.00;;;;;;;28.46;90.85;99402.22;5102719;28;20202;-68
2023/07/02 08:39:58;;;;;;;2.63;2.10;;;;;;;28.34;92.57;99413.72;5099220;28;20204;-68
2023/07/02 08:42:29;;;;;;;1.50;1.40;;;;;;;28.39;91.81;99412.47;5090547;28;20237;-68
2023/07/02 08:44:58;;;;;;;1.67;1.58;;;;;;;28.47;92.68;99399.44;5090377;28;20201;-72
2023/07/02 08:47:26;;;;;;;1.50;1.40;;;;;;;28.50;96.66;99409.06;5080944;28;20303;-74
2023/07/02 08:49:53;;;;;;;1.60;1.50;;;;;;;28.80;93.61;99409.59;5091250;28;20198;-71
2023/07/02 08:52:20;;;;;;;1.70;1.60;;;;;;;28.78;93.55;99406.19;5109717;28;20197;-69
2023/07/02 08:54:46;;;;;;;1.60;1.50;;;;;;;28.73;93.39;99416.34;5101257;28;20278;-69
2023/07/02 08:57:13;;;;;;;1.85;1.75;;;;;;;28.68;93.52;99413.13;5100795;28;20673;-68
2023/07/02 08:59:40;;;;;;;1.52;1.45;;;;;;;28.36;97.14;99422.50;5098845;28;20220;-69
2023/07/02 09:02:07;;;;;;;1.50;1.40;;;;;;;27.98;98.01;99420.56;5109569;28;20201;-68
2023/07/02 09:04:35;;;;;;;1.73;1.63;;;;;;;27.74;100.00;99419.53;5091265;28;20285;-69
2023/07/02 09:07:06;;;;;;;1.60;1.50;;;;;;;27.53;100.00;99363.19;5106690;28;20570;-71
2023/07/02 09:09:34;;;;;;;1.40;1.40;;;;;;;27.73;100.00;99407.16;5102257;28;20201;-74
2023/07/02 09:12:01;;;;;;;1.30;1.30;;;;;;;27.94;100.00;99410.19;5103585;28;20208;-74
2023/07/02 09:14:29;;;;;;;1.60;1.50;;;;;;;27.98;100.00;99401.91;5093304;28;20205;-72
2023/07/02 09:17:05;;;;;;;1.45;1.38;;;;;;;28.04;100.00;99406.81;5101605;28;20232;-74
2023/07/02 09:19:32;;;;;;;1.30;1.30;;;;;;;28.37;100.00;99402.84;5109748;28;20208;-70
2023/07/02 09:22:01;;;;;;;1.60;1.50;;;;;;;28.81;96.39;99411.31;5109685;28;20617;-69
2023/07/02 09:24:29;;;;;;;1.55;1.45;;;;;;;29.14;95.03;99412.56;5104308;28;20297;-69
2023/07/02 09:26:57;;;;;;;2.40;1.83;;;;;;;29.30;88.71;99407.84;5108566;28;20213;-68
2023/07/02 09:29:28;;;;;;;1.67;1.58;;;;;;;29.26;94.62;99403.63;5102039;28;20190;-69
2023/07/02 09:31:55;;;;;;;1.58;1.52;;;;;;;29.23;100.00;99407.41;5102814;28;20287;-68
2023/07/02 09:34:29;;;;;;;1.80;1.70;;;;;;;29.32;90.41;99371.19;5109322;28;20201;-68
2023/07/02 09:36:56;;;;;;;1.77;1.67;;;;;;;29.73;89.80;99410.88;5107673;28;20312;-68
2023/07/02 09:39:27;;;;;;;1.80;1.70;;;;;;;29.37;87.96;99315.59;5109575;28;20189;-68
2023/07/02 09:41:56;;;;;;;1.65;1.55;;;;;;;29.95;88.17;99398.50;5109058;28;20193;-68
2023/07/02 09:44:26;;;;;;;1.38;1.38;;;;;;;30.12;89.46;99380.31;5073716;28;20219;-69
2023/07/02 09:47:01;;;;;;;1.65;1.55;;;;;;;30.93;86.99;99408.69;5109258;28;20205;-69
2023/07/02 09:49:32;;;;;;;1.70;1.60;;;;;;;31.50;82.33;99407.66;5088211;28;20192;-70
2023/07/02 09:52:00;;;;;;;1.40;1.40;;;;;;;31.17;78.49;99411.28;5108641;28;20205;-69
2023/07/02 09:54:28;;;;;;;1.45;1.45;;;;;;;31.73;78.00;99409.34;5106308;28;20301;-69
2023/07/02 09:56:56;;;;;;;1.63;1.52;;;;;;;32.26;71.04;99406.69;5104914;28;20261;-70
2023/07/02 09:59:23;;;;;;;1.58;1.48;;;;;;;32.59;69.67;99411.88;5090036;28;20239;-69
2023/07/02 10:01:50;;;;;;;1.60;1.50;;;;;;;32.46;66.95;99394.25;5107166;28;20291;-69
2023/07/02 10:04:19;;;;;;;3.22;1.80;;;;;;;32.61;64.88;99409.91;5109113;28;20217;-70
2023/07/02 10:06:50;;;;;;;1.70;1.60;;;;;;;32.46;62.63;99413.91;5102152;28;20201;-75
2023/07/02 10:09:17;;;;;;;12.38;3.65;;;;;;;32.70;62.56;99411.81;5089041;28;20299;-69
2023/07/02 10:11:45;;;;;;;1.20;1.20;;;;;;;32.08;61.83;99408.25;5073334;28;20192;-69
2023/07/02 10:14:13;;;;;;;1.50;1.40;;;;;;;31.37;62.76;99413.19;5109399;28;20200;-69
2023/07/02 10:16:53;;;;;;;1.60;1.50;;;;;;;32.15;66.12;99407.59;5105008;28;20232;-69
2023/07/02 10:19:20;;;;;;;1.42;1.40;;;;;;;31.93;68.49;99410.34;5094711;28;20205;-68
2023/07/02 10:21:49;;;;;;;1.38;1.30;;;;;;;31.65;64.10;99406.44;5107758;28;20201;-69
2023/07/02 10:24:17;;;;;;;1.70;1.60;;;;;;;31.18;64.15;99399.56;5113214;27;20225;-69
2023/07/02 10:26:56;;;;;;;1.50;1.50;;;;;;;31.63;65.66;99397.69;5105296;28;20201;-70
2023/07/02 10:29:24;;;;;;;1.33;1.33;;;;;;;32.00;67.69;99402.66;5099494;28;20309;-68
2023/07/02 10:31:52;;;;;;;1.67;1.58;;;;;;;31.69;66.08;99397.16;5092643;28;20708;-69
2023/07/02 10:34:32;;;;;;;1.92;1.83;;;;;;;31.80;59.29;99393.59;5103003;28;20275;-68
2023/07/02 10:37:00;;;;;;;3.22;2.10;;;;;;;32.07;58.00;99390.47;5109685;28;20205;-69
2023/07/02 10:39:29;;;;;;;1.95;1.40;;;;;;;32.00;55.96;99384.72;5108067;28;20193;-70
2023/07/02 10:42:06;;;;;;;1.63;1.52;;;;;;;32.25;55.53;99392.41;5094121;28;20197;-70
2023/07/02 10:44:32;;;;;;;1.63;1.52;;;;;;;32.31;52.23;99391.06;5099790;28;20230;-70
2023/07/02 10:46:59;;;;;;;1.80;1.70;;;;;;;32.09;50.64;99372.41;5105215;28;20201;-69
2023/07/02 10:49:32;;;;;;;1.38;1.38;;;;;;;32.33;48.28;99397.13;5093254;28;20598;-70
2023/07/02 10:51:59;;;;;;;1.38;1.38;;;;;;;32.36;46.22;99370.88;5092655;28;20288;-69
2023/07/02 10:54:26;;;;;;;1.30;1.30;;;;;;;32.72;46.44;99384.81;5092370;28;20201;-70
2023/07/02 10:56:58;;;;;;;1.48;1.48;;;;;;;32.68;46.36;99383.38;5094346;28;20210;-69
2023/07/02 10:59:26;;;;;;;2.00;1.90;;;;;;;32.17;52.46;99369.94;5097526;28;20262;-69
2023/07/02 11:01:55;;;;;;;1.60;1.60;;;;;;;32.49;56.74;99378.75;5104299;28;20206;-69
2023/07/02 11:04:23;;;;;;;1.67;1.60;;;;;;;32.32;56.55;99369.44;5098906;28;20262;-72
2023/07/02 11:06:50;;;;;;;1.60;1.60;;;;;;;32.32;56.87;99384.72;5098962;28;20201;-70
2023/07/02 11:09:17;;;;;;;1.38;1.38;;;;;;;32.14;60.61;99378.25;5099347;28;20554;-71
2023/07/02 11:11:53;;;;;;;1.58;1.48;;;;;;;32.11;59.44;99360.53;5088652;28;20233;-69
2023/07/02 11:14:32;;;;;;;1.30;1.30;;;;;;;32.08;62.22;99370.69;5107089;28;20197;-70
2023/07/02 11:17:02;;;;;;;1.50;1.50;;;;;;;31.63;62.15;99364.66;5099148;28;20820;-69
2023/07/02 11:19:28;;;;;;;1.45;1.38;;;;;;;31.00;62.40;99360.03;5111439;28;20209;-68
2023/07/02 11:21:57;;;;;;;1.60;1.50;;;;;;;30.75;66.79;99366.47;5110712;28;20527;-69
2023/07/02 11:24:35;;;;;;;1.33;1.33;;;;;;;30.50;68.25;99351.50;5111727;28;20217;-69
2023/07/02 11:27:03;;;;;;;1.55;1.50;;;;;;;30.54;67.12;99347.56;5109700;28;20607;-70
2023/07/02 11:29:31;;;;;;;2.55;2.17;;;;;;;30.61;70.01;99364.03;5110446;28;20197;-69
2023/07/02 11:32:06;;;;;;;1.48;1.48;;;;;;;30.55;72.98;99360.00;5107253;28;20200;-68